Time;durP1;ratioP1;P1;durP2;ratioP2;P2;SDS_P1;SDS_P2;PMS_P1;PMS_P2;Temp;Humidity;BMP_temperature;BMP_pressure;BME280_temperature;BME280_humidity;BME280_pressure;Samples;Min_cycle;Max_cycle;Signal;HPM_P1;HPM_P2
2022/08/20 00:01:01;;;;;;;17.30;6.78;;;19.00;99.90;;;;;;6069931;23;20506;-87
2022/08/20 00:03:31;;;;;;;13.75;6.07;;;19.00;99.90;;;;;;6068733;23;20064;-86
2022/08/20 00:06:02;;;;;;;15.75;6.70;;;19.00;99.90;;;;;;6070315;23;20025;-86
2022/08/20 00:08:29;;;;;;;18.73;6.25;;;19.00;99.90;;;;;;6069664;23;20073;-87
2022/08/20 00:10:56;;;;;;;11.63;6.00;;;18.90;99.90;;;;;;6070028;23;20017;-87
2022/08/20 00:13:28;;;;;;;16.67;5.55;;;18.90;99.90;;;;;;6069455;23;20014;-87
2022/08/20 00:15:55;;;;;;;14.70;6.40;;;18.90;99.90;;;;;;6070756;23;20022;-87
2022/08/20 00:18:22;;;;;;;16.35;6.10;;;18.90;99.90;;;;;;6092292;23;20451;-87
2022/08/20 00:20:51;;;;;;;12.68;5.45;;;18.90;99.90;;;;;;6070483;23;20013;-87
2022/08/20 00:23:17;;;;;;;14.48;6.30;;;18.90;99.90;;;;;;6069046;23;20025;-86
2022/08/20 00:25:44;;;;;;;13.10;5.75;;;18.90;99.90;;;;;;6070321;23;20455;-86
2022/08/20 00:28:11;;;;;;;13.60;5.22;;;18.90;99.90;;;;;;6069520;23;20026;-86
2022/08/20 00:30:40;;;;;;;15.52;5.47;;;18.90;99.90;;;;;;6068636;23;20018;-87
2022/08/20 00:33:08;;;;;;;12.68;5.22;;;18.90;99.90;;;;;;6069540;23;20068;-87
2022/08/20 00:35:40;;;;;;;10.88;4.93;;;18.90;99.90;;;;;;6069130;23;20097;-87
2022/08/20 00:38:06;;;;;;;16.77;5.28;;;18.90;99.90;;;;;;6092622;23;20451;-87
2022/08/20 00:40:36;;;;;;;21.10;5.00;;;18.90;99.90;;;;;;6069001;23;20112;-87
2022/08/20 00:43:06;;;;;;;16.98;5.20;;;18.90;99.90;;;;;;6069870;23;20484;-87
2022/08/20 00:45:34;;;;;;;16.42;5.00;;;18.80;99.90;;;;;;6068528;23;20096;-87
2022/08/20 00:48:00;;;;;;;21.38;4.75;;;18.80;99.90;;;;;;6070186;23;20022;-87
2022/08/20 00:50:33;;;;;;;20.10;5.13;;;18.80;99.90;;;;;;6068869;23;20040;-87
2022/08/20 00:53:01;;;;;;;20.67;4.93;;;18.80;99.90;;;;;;6069263;23;20033;-86
2022/08/20 00:55:28;;;;;;;14.93;4.30;;;18.80;99.90;;;;;;6069868;23;20021;-87
2022/08/20 00:58:08;;;;;;;17.73;5.20;;;18.80;99.90;;;;;;6070449;23;20459;-88
2022/08/20 01:00:45;;;;;;;20.45;4.93;;;18.70;99.90;;;;;;6068629;23;20093;-87
2022/08/20 01:03:14;;;;;;;15.50;5.05;;;18.70;99.90;;;;;;6069680;23;20121;-87
2022/08/20 01:05:43;;;;;;;14.65;4.60;;;18.70;99.90;;;;;;6068517;23;20082;-87
2022/08/20 01:08:10;;;;;;;18.83;4.88;;;18.70;99.90;;;;;;6069731;23;20490;-86
2022/08/20 01:10:38;;;;;;;17.85;4.70;;;18.70;99.90;;;;;;6068819;23;20346;-87
2022/08/20 01:13:09;;;;;;;23.30;5.07;;;18.70;99.90;;;;;;6092551;23;20025;-87
2022/08/20 01:15:40;;;;;;;17.00;4.90;;;18.70;99.90;;;;;;6069113;23;20450;-86
2022/08/20 01:18:12;;;;;;;18.08;4.28;;;18.70;99.90;;;;;;6095497;23;20026;-86
2022/08/20 01:20:43;;;;;;;22.70;4.88;;;18.60;99.90;;;;;;6094869;23;20343;-86
2022/08/20 01:23:26;;;;;;;14.13;4.30;;;18.60;99.90;;;;;;6071107;23;20096;-86
2022/08/20 01:25:56;;;;;;;20.85;5.05;;;18.60;99.90;;;;;;6071756;23;20089;-86
2022/08/20 01:28:36;;;;;;;21.83;4.88;;;18.60;99.90;;;;;;6069654;23;20060;-87
2022/08/20 01:31:04;;;;;;;17.17;5.28;;;18.50;99.90;;;;;;6071576;23;20025;-86
2022/08/20 01:33:30;;;;;;;15.10;5.85;;;18.50;99.90;;;;;;6070037;23;20092;-87
2022/08/20 01:35:57;;;;;;;14.77;6.28;;;18.40;99.90;;;;;;6095622;23;20029;-87
2022/08/20 01:38:23;;;;;;;14.55;5.50;;;18.40;99.90;;;;;;6094400;23;20032;-87
2022/08/20 01:41:08;;;;;;;15.75;5.30;;;18.40;99.90;;;;;;6094317;23;20421;-86
2022/08/20 01:43:33;;;;;;;22.83;5.60;;;18.30;99.90;;;;;;6070492;23;20026;-87
2022/08/20 01:46:00;;;;;;;13.48;5.25;;;18.30;99.90;;;;;;6071245;23;20041;-87
2022/08/20 01:48:26;;;;;;;16.10;5.30;;;18.30;99.90;;;;;;6093422;23;20017;-86
2022/08/20 01:51:05;;;;;;;20.92;5.20;;;18.20;99.90;;;;;;6072052;23;20334;-87
2022/08/20 01:53:37;;;;;;;22.25;5.75;;;18.20;99.90;;;;;;6071020;23;20072;-86
2022/08/20 01:56:06;;;;;;;18.45;5.32;;;18.20;99.90;;;;;;6069803;23;20017;-86
2022/08/20 01:58:35;;;;;;;11.27;4.72;;;18.20;99.90;;;;;;6070298;23;20013;-86
2022/08/20 02:01:01;;;;;;;17.48;4.80;;;18.10;99.90;;;;;;6070393;23;20028;-86
2022/08/20 02:03:26;;;;;;;15.23;5.38;;;18.10;99.90;;;;;;6093342;23;20054;-86
2022/08/20 02:05:52;;;;;;;16.48;5.03;;;18.00;99.90;;;;;;6095226;23;20073;-86
2022/08/20 02:08:20;;;;;;;17.08;4.88;;;18.00;99.90;;;;;;6070414;23;20013;-86
2022/08/20 02:10:47;;;;;;;13.13;4.68;;;18.00;99.90;;;;;;6094504;23;20061;-86
2022/08/20 02:13:13;;;;;;;14.02;5.15;;;17.90;99.90;;;;;;6069780;23;20021;-86
2022/08/20 02:15:39;;;;;;;16.08;5.15;;;17.90;99.90;;;;;;6070611;23;20022;-86
2022/08/20 02:18:10;;;;;;;14.43;5.00;;;17.90;99.90;;;;;;6094577;23;20084;-86
2022/08/20 02:20:38;;;;;;;15.13;4.38;;;17.80;99.90;;;;;;6094772;23;20443;-86
2022/08/20 02:23:04;;;;;;;12.98;4.88;;;17.80;99.90;;;;;;6069623;23;20434;-86
2022/08/20 02:25:33;;;;;;;17.67;5.30;;;17.80;99.90;;;;;;6070753;23;20024;-87
2022/08/20 02:28:12;;;;;;;13.70;5.15;;;17.70;99.90;;;;;;6070359;23;20018;-85
2022/08/20 02:30:48;;;;;;;17.20;4.90;;;17.70;99.90;;;;;;6093889;23;20088;-86
2022/08/20 02:33:16;;;;;;;15.77;4.80;;;17.70;99.90;;;;;;6070644;23;20118;-86
2022/08/20 02:35:45;;;;;;;10.55;4.55;;;17.70;99.90;;;;;;6070588;23;20018;-86
2022/08/20 02:38:11;;;;;;;18.83;5.28;;;17.70;99.90;;;;;;6069815;23;20108;-86
2022/08/20 02:40:37;;;;;;;11.63;4.78;;;17.60;99.90;;;;;;6070616;23;20014;-86
2022/08/20 02:43:04;;;;;;;19.05;4.90;;;17.50;99.90;;;;;;6070443;23;20033;-86
2022/08/20 02:45:35;;;;;;;17.73;5.30;;;17.60;99.90;;;;;;6093827;23;20351;-86
2022/08/20 02:48:02;;;;;;;21.33;5.03;;;17.50;99.90;;;;;;6095206;23;20108;-86
2022/08/20 02:50:29;;;;;;;17.23;4.88;;;17.50;99.90;;;;;;6071007;23;20096;-86
2022/08/20 02:52:54;;;;;;;17.55;6.07;;;17.50;99.90;;;;;;6094419;23;20440;-86
2022/08/20 02:55:21;;;;;;;15.82;4.95;;;17.40;99.90;;;;;;6071373;23;20025;-86
2022/08/20 02:57:47;;;;;;;17.10;5.75;;;17.40;99.90;;;;;;6070281;23;20021;-86
2022/08/20 03:00:17;;;;;;;12.75;5.28;;;17.40;99.90;;;;;;6069510;23;20033;-86
2022/08/20 03:02:52;;;;;;;16.90;5.75;;;17.30;99.90;;;;;;6070392;23;20024;-86
2022/08/20 03:05:18;;;;;;;15.57;5.82;;;17.30;99.90;;;;;;6070257;23;20028;-86
2022/08/20 03:07:46;;;;;;;17.52;5.38;;;17.30;99.90;;;;;;6070546;23;20092;-87
2022/08/20 03:10:13;;;;;;;18.00;5.18;;;17.20;99.90;;;;;;6070897;23;20085;-86
2022/08/20 03:12:40;;;;;;;14.32;5.40;;;17.20;99.90;;;;;;6093212;23;20018;-86
2022/08/20 03:15:08;;;;;;;17.98;5.65;;;17.20;99.90;;;;;;6095173;23;20357;-86
2022/08/20 03:17:33;;;;;;;16.40;5.85;;;17.20;99.90;;;;;;6069925;23;20014;-86
2022/08/20 03:19:59;;;;;;;21.98;5.07;;;17.10;99.90;;;;;;6094668;23;20465;-86
2022/08/20 03:22:25;;;;;;;17.67;5.95;;;17.10;99.90;;;;;;6070055;23;20018;-86
2022/08/20 03:24:51;;;;;;;16.95;4.80;;;17.10;99.90;;;;;;6070909;23;20018;-87
2022/08/20 03:27:16;;;;;;;15.38;5.03;;;17.00;99.90;;;;;;6093300;23;20037;-87
2022/08/20 03:29:42;;;;;;;17.50;5.13;;;17.00;99.90;;;;;;6070657;23;20466;-86
2022/08/20 03:32:08;;;;;;;19.70;5.22;;;17.00;99.90;;;;;;6069772;23;20358;-86
2022/08/20 03:34:34;;;;;;;14.02;4.93;;;16.90;99.90;;;;;;6093735;23;20450;-86
2022/08/20 03:36:59;;;;;;;16.80;4.78;;;16.90;99.90;;;;;;6070862;23;20014;-87
2022/08/20 03:39:25;;;;;;;16.77;4.43;;;16.90;99.90;;;;;;6069452;23;20026;-86
2022/08/20 03:41:51;;;;;;;15.63;4.50;;;16.90;99.90;;;;;;6093782;23;20346;-86
2022/08/20 03:44:17;;;;;;;15.15;4.55;;;16.90;99.90;;;;;;6070002;23;20414;-86
2022/08/20 03:46:43;;;;;;;14.80;4.15;;;16.80;99.90;;;;;;6070050;23;20328;-86
2022/08/20 03:49:09;;;;;;;9.65;4.13;;;16.90;99.90;;;;;;6068880;23;20498;-85
2022/08/20 03:51:35;;;;;;;20.20;4.30;;;16.80;99.90;;;;;;6070322;23;20069;-86
2022/08/20 03:54:00;;;;;;;17.80;4.80;;;16.80;99.90;;;;;;6070106;23;20021;-86
2022/08/20 03:56:27;;;;;;;20.30;4.13;;;16.80;99.90;;;;;;6069164;23;20514;-85
2022/08/20 03:58:53;;;;;;;15.60;3.90;;;16.80;99.90;;;;;;6070067;23;20030;-86
2022/08/20 04:01:19;;;;;;;16.17;4.00;;;16.80;99.90;;;;;;6068717;23;20021;-87
2022/08/20 04:03:46;;;;;;;13.43;3.67;;;16.80;99.90;;;;;;6094195;23;20025;-86
2022/08/20 04:06:11;;;;;;;15.23;3.35;;;16.80;99.90;;;;;;6069517;23;20017;-86
2022/08/20 04:08:39;;;;;;;13.05;3.60;;;16.80;99.90;;;;;;6093048;23;20025;-86
2022/08/20 04:11:04;;;;;;;15.00;3.00;;;16.80;99.90;;;;;;6070172;23;20081;-86
2022/08/20 04:13:30;;;;;;;16.95;2.97;;;16.80;99.90;;;;;;6069388;23;20025;-87
2022/08/20 04:15:57;;;;;;;19.88;3.58;;;16.80;99.90;;;;;;6069520;23;20395;-87
2022/08/20 04:18:24;;;;;;;16.23;3.17;;;16.70;99.90;;;;;;6093511;23;20027;-86
2022/08/20 04:20:51;;;;;;;13.25;2.50;;;16.70;99.90;;;;;;6094364;23;20021;-85
2022/08/20 04:23:18;;;;;;;14.05;2.35;;;16.70;99.90;;;;;;6092229;23;20025;-86
2022/08/20 04:25:45;;;;;;;13.38;2.80;;;16.70;99.90;;;;;;6070005;23;20094;-86
2022/08/20 04:28:14;;;;;;;10.68;2.67;;;16.70;99.90;;;;;;6069263;23;20074;-86
2022/08/20 04:30:41;;;;;;;18.83;2.97;;;16.70;99.90;;;;;;6093084;23;20089;-86
2022/08/20 04:33:09;;;;;;;10.55;2.13;;;16.70;99.90;;;;;;6069873;23;20022;-86
2022/08/20 04:35:35;;;;;;;17.50;2.97;;;16.60;99.90;;;;;;6069777;23;20018;-86
2022/08/20 04:38:07;;;;;;;12.23;2.40;;;16.60;99.90;;;;;;6069320;23;20380;-86
2022/08/20 04:43:19;;;;;;;17.00;2.35;;;16.60;99.90;;;;;;6093459;23;20058;-86
2022/08/20 04:45:45;;;;;;;11.52;2.47;;;16.60;99.90;;;;;;6069072;23;20022;-85
2022/08/20 04:48:12;;;;;;;11.63;2.30;;;16.60;99.90;;;;;;6093590;23;20010;-87
2022/08/20 04:50:41;;;;;;;13.85;2.28;;;16.60;99.90;;;;;;6069325;23;20093;-87
2022/08/20 04:53:09;;;;;;;12.38;1.95;;;16.60;99.90;;;;;;6071332;23;20089;-86
2022/08/20 04:55:38;;;;;;;13.57;2.15;;;16.60;99.90;;;;;;6071702;23;20353;-86
2022/08/20 04:58:06;;;;;;;14.32;2.53;;;16.70;99.90;;;;;;6094191;23;20381;-86
2022/08/20 05:00:32;;;;;;;14.95;2.05;;;16.70;99.90;;;;;;6071390;23;20092;-87
2022/08/20 05:02:58;;;;;;;15.30;2.80;;;16.70;99.90;;;;;;6071636;23;20024;-86
2022/08/20 05:05:25;;;;;;;13.10;2.17;;;16.70;99.90;;;;;;6094575;23;20041;-86
2022/08/20 05:07:52;;;;;;;14.38;2.15;;;16.60;99.90;;;;;;6069918;23;20026;-86
2022/08/20 05:10:18;;;;;;;12.82;2.00;;;16.60;99.90;;;;;;6095387;23;20061;-86
2022/08/20 05:12:45;;;;;;;12.68;2.28;;;16.60;99.90;;;;;;6070871;23;20022;-86
2022/08/20 05:15:11;;;;;;;14.93;2.00;;;16.60;99.90;;;;;;6095253;23;20018;-86
2022/08/20 05:17:40;;;;;;;12.68;2.22;;;16.60;99.90;;;;;;6071998;23;20030;-86
2022/08/20 05:20:08;;;;;;;12.55;1.75;;;16.60;99.90;;;;;;6070864;23;20014;-86
2022/08/20 05:22:34;;;;;;;12.93;1.88;;;16.60;99.90;;;;;;6071692;23;20017;-86
2022/08/20 05:25:00;;;;;;;13.25;1.95;;;16.60;99.90;;;;;;6071711;23;20022;-86
2022/08/20 05:27:28;;;;;;;11.48;1.67;;;16.60;99.90;;;;;;6094257;23;20025;-86
2022/08/20 05:29:59;;;;;;;10.23;1.92;;;16.60;99.90;;;;;;6095803;23;20585;-86
2022/08/20 05:32:26;;;;;;;13.75;2.47;;;16.50;99.90;;;;;;6070260;23;20172;-85
2022/08/20 05:34:53;;;;;;;14.15;1.85;;;16.50;99.90;;;;;;6094197;23;20022;-86
2022/08/20 05:37:19;;;;;;;13.48;2.25;;;16.40;99.90;;;;;;6094898;23;20469;-87
2022/08/20 05:39:45;;;;;;;14.20;1.80;;;16.40;99.90;;;;;;6094623;23;20030;-86
2022/08/20 05:42:11;;;;;;;11.85;2.30;;;16.40;99.90;;;;;;6070461;23;20018;-88
2022/08/20 05:44:37;;;;;;;11.63;1.92;;;16.30;99.90;;;;;;6072427;23;20098;-88
2022/08/20 05:47:04;;;;;;;9.80;1.70;;;16.30;99.90;;;;;;6091172;23;20026;-88
2022/08/20 05:49:30;;;;;;;13.38;2.05;;;16.30;99.90;;;;;;6071622;23;20090;-88
2022/08/20 05:51:57;;;;;;;15.80;2.10;;;16.20;99.90;;;;;;6072157;23;20029;-87
2022/08/20 05:54:23;;;;;;;15.10;1.98;;;16.30;99.90;;;;;;6071205;23;20025;-88
2022/08/20 05:56:49;;;;;;;12.73;2.05;;;16.30;99.90;;;;;;6072151;23;20018;-88
2022/08/20 05:59:15;;;;;;;13.18;1.77;;;16.30;99.90;;;;;;6071355;23;20028;-88
2022/08/20 06:01:41;;;;;;;10.75;1.95;;;16.40;99.90;;;;;;6070734;23;20018;-88
2022/08/20 06:04:24;;;;;;;13.45;1.70;;;16.40;99.90;;;;;;6070731;23;20025;-88
2022/08/20 06:06:52;;;;;;;16.67;2.43;;;16.50;99.90;;;;;;6071654;23;20029;-87
2022/08/20 06:09:21;;;;;;;19.08;2.72;;;16.50;99.90;;;;;;6071516;23;20101;-89
2022/08/20 06:11:47;;;;;;;17.40;2.88;;;16.60;99.90;;;;;;6071436;23;20022;-88
2022/08/20 06:14:19;;;;;;;15.18;2.10;;;16.70;99.90;;;;;;6070792;23;20025;-87
2022/08/20 06:16:45;;;;;;;15.67;2.13;;;16.80;99.90;;;;;;6070318;23;20018;-87
2022/08/20 06:19:11;;;;;;;12.52;2.00;;;16.90;99.90;;;;;;6071556;23;20050;-87
2022/08/20 06:21:38;;;;;;;13.55;2.40;;;17.00;99.90;;;;;;6071609;23;20025;-87
2022/08/20 06:24:05;;;;;;;14.30;2.30;;;17.10;99.90;;;;;;6070665;23;20108;-88
2022/08/20 06:26:33;;;;;;;12.88;2.20;;;17.20;99.90;;;;;;6071170;23;20026;-87
2022/08/20 06:29:01;;;;;;;13.25;2.03;;;17.30;99.90;;;;;;6070353;23;20342;-87
2022/08/20 06:31:27;;;;;;;11.88;1.40;;;17.30;99.90;;;;;;6069784;23;20459;-87
2022/08/20 06:33:52;;;;;;;5.75;1.33;;;17.40;99.90;;;;;;6070931;23;20084;-88
2022/08/20 06:36:19;;;;;;;12.25;1.70;;;17.50;99.90;;;;;;6070285;23;20403;-88
2022/08/20 06:38:45;;;;;;;12.02;2.03;;;17.60;99.90;;;;;;6069023;23;20022;-88
2022/08/20 06:41:11;;;;;;;9.60;1.30;;;17.70;99.90;;;;;;6071168;23;20022;-88
2022/08/20 06:43:40;;;;;;;17.73;1.55;;;17.80;99.90;;;;;;6069787;23;20032;-87
2022/08/20 06:46:11;;;;;;;9.07;1.55;;;17.90;99.90;;;;;;6069649;23;20455;-87
2022/08/20 06:48:43;;;;;;;11.05;1.40;;;17.90;99.90;;;;;;6071060;23;20077;-87
2022/08/20 06:51:12;;;;;;;10.02;1.42;;;18.10;99.90;;;;;;6070012;23;20029;-87
2022/08/20 06:53:38;;;;;;;7.80;1.75;;;18.20;99.90;;;;;;6094242;23;20018;-86
2022/08/20 06:56:04;;;;;;;14.88;1.92;;;18.30;99.90;;;;;;6070682;23;20016;-86
2022/08/20 06:58:31;;;;;;;11.63;1.35;;;18.40;99.90;;;;;;6069111;23;20623;-87
2022/08/20 07:00:58;;;;;;;4.45;0.90;;;18.40;99.90;;;;;;6069933;23;20025;-87
2022/08/20 07:03:25;;;;;;;6.95;1.25;;;18.50;99.90;;;;;;6069962;23;20037;-87
2022/08/20 07:05:51;;;;;;;46.38;3.33;;;18.50;99.90;;;;;;6070094;23;20549;-87
2022/08/20 07:08:20;;;;;;;33.33;4.15;;;18.60;99.90;;;;;;6070297;23;20022;-86
2022/08/20 07:10:47;;;;;;;10.27;1.42;;;18.60;99.90;;;;;;6070287;23;20030;-87
2022/08/20 07:13:15;;;;;;;90.13;4.97;;;18.70;99.90;;;;;;6068794;23;20134;-85
2022/08/20 07:15:42;;;;;;;15.23;1.75;;;18.80;99.90;;;;;;6069472;23;20014;-86
2022/08/20 07:18:09;;;;;;;28.05;2.33;;;18.90;99.90;;;;;;6069216;23;20072;-86
2022/08/20 07:20:37;;;;;;;15.70;1.90;;;19.00;99.90;;;;;;6069894;23;20051;-85
2022/08/20 07:23:03;;;;;;;19.60;2.03;;;19.10;99.90;;;;;;6069619;23;20351;-86
2022/08/20 07:25:30;;;;;;;27.85;2.80;;;19.20;99.90;;;;;;6069283;23;20068;-87
2022/08/20 07:28:06;;;;;;;16.25;2.20;;;19.20;99.90;;;;;;6068922;23;20029;-85
2022/08/20 07:33:17;;;;;;;7.88;1.00;;;19.30;99.90;;;;;;6092014;23;20045;-85
2022/08/20 07:35:42;;;;;;;15.43;2.85;;;19.40;99.90;;;;;;6069805;23;20025;-85
2022/08/20 07:38:25;;;;;;;10.02;0.98;;;19.50;99.90;;;;;;6069634;23;20013;-86
2022/08/20 07:40:53;;;;;;;7.55;0.90;;;19.60;99.90;;;;;;6069333;23;20053;-86
2022/08/20 07:43:20;;;;;;;6.57;1.35;;;19.70;99.90;;;;;;6092562;23;20025;-87
2022/08/20 07:45:46;;;;;;;7.13;1.38;;;19.70;99.90;;;;;;6093587;23;20484;-86
2022/08/20 07:48:13;;;;;;;10.85;1.13;;;19.60;99.90;;;;;;6068275;23;20014;-86
2022/08/20 07:50:40;;;;;;;66.80;3.97;;;19.60;99.90;;;;;;6069626;23;20014;-86
2022/08/20 07:53:06;;;;;;;9.27;1.25;;;19.40;99.90;;;;;;6093213;23;20018;-86
2022/08/20 07:55:32;;;;;;;65.88;4.90;;;19.30;99.90;;;;;;6092901;23;20347;-85
2022/08/20 07:58:06;;;;;;;63.22;5.40;;;19.20;99.90;;;;;;6093578;23;20022;-86
2022/08/20 08:00:32;;;;;;;9.25;1.27;;;19.10;99.90;;;;;;6092126;23;20025;-86
2022/08/20 08:02:58;;;;;;;12.60;1.42;;;19.20;99.90;;;;;;6069384;23;20022;-86
2022/08/20 08:05:24;;;;;;;90.60;4.78;;;19.30;99.90;;;;;;6069057;23;20121;-85
2022/08/20 08:07:51;;;;;;;9.75;1.40;;;19.40;99.90;;;;;;6093142;23;20471;-86
2022/08/20 08:10:22;;;;;;;24.83;2.70;;;19.50;99.90;;;;;;6093217;23;20045;-86
2022/08/20 08:12:50;;;;;;;26.83;2.03;;;19.60;99.90;;;;;;6069404;23;20017;-86
2022/08/20 08:15:22;;;;;;;72.07;6.40;;;19.70;99.90;;;;;;6067850;23;20026;-85
2022/08/20 08:17:51;;;;;;;11.30;1.40;;;19.90;99.90;;;;;;6069564;23;20403;-86
2022/08/20 08:20:21;;;;;;;14.75;1.40;;;19.90;99.90;;;;;;6069418;23;20018;-85
2022/08/20 08:22:47;;;;;;;24.17;3.00;;;20.00;99.90;;;;;;6092347;23;20387;-86
2022/08/20 08:25:14;;;;;;;25.80;3.30;;;20.10;99.90;;;;;;6069297;23;20018;-85
2022/08/20 08:27:40;;;;;;;16.90;1.38;;;20.20;99.90;;;;;;6069579;23;20036;-86
2022/08/20 08:30:08;;;;;;;11.50;1.45;;;20.20;99.90;;;;;;6068115;23;20510;-87
2022/08/20 08:32:35;;;;;;;13.65;1.70;;;20.30;99.90;;;;;;6069430;23;20062;-87
2022/08/20 08:35:07;;;;;;;27.00;3.63;;;20.30;99.90;;;;;;6069830;23;20081;-86
2022/08/20 08:37:33;;;;;;;13.00;1.48;;;20.40;99.90;;;;;;6068401;23;20539;-86
2022/08/20 08:40:00;;;;;;;12.95;1.45;;;20.50;99.90;;;;;;6069494;23;20044;-85
2022/08/20 08:42:44;;;;;;;10.75;1.40;;;20.50;99.90;;;;;;6068373;23;20352;-87
2022/08/20 08:45:14;;;;;;;10.48;1.65;;;20.60;99.90;;;;;;6069606;23;20030;-86
2022/08/20 08:47:40;;;;;;;9.18;1.40;;;20.60;99.90;;;;;;6069565;23;20481;-86
2022/08/20 08:50:14;;;;;;;8.27;1.35;;;20.70;99.90;;;;;;6068876;23;20026;-87
2022/08/20 08:52:40;;;;;;;8.63;1.25;;;20.80;99.90;;;;;;6093574;23;20362;-87
2022/08/20 08:55:11;;;;;;;8.23;1.60;;;20.80;99.90;;;;;;6069903;23;20014;-87
2022/08/20 08:57:37;;;;;;;6.25;1.33;;;20.90;99.90;;;;;;6068454;23;20342;-86
2022/08/20 09:00:12;;;;;;;5.88;1.08;;;20.90;99.90;;;;;;6070236;23;20028;-87
2022/08/20 09:02:37;;;;;;;56.22;4.30;;;21.10;99.90;;;;;;6069193;23;20014;-86
2022/08/20 09:05:13;;;;;;;15.85;1.70;;;21.20;99.90;;;;;;6068874;23;20402;-86
2022/08/20 09:07:44;;;;;;;21.90;1.90;;;21.20;99.90;;;;;;6069298;23;20643;-86
2022/08/20 09:10:10;;;;;;;112.60;9.27;;;21.40;99.90;;;;;;6068704;23;20018;-87
2022/08/20 09:12:35;;;;;;;9.85;1.38;;;21.50;99.90;;;;;;6067795;23;20350;-86
2022/08/20 09:15:01;;;;;;;25.13;2.17;;;21.50;99.90;;;;;;6094067;23;20022;-86
2022/08/20 09:17:27;;;;;;;14.10;1.75;;;21.60;99.90;;;;;;6068549;23;20018;-87
2022/08/20 09:19:53;;;;;;;12.93;1.77;;;21.70;99.90;;;;;;6093261;23;20143;-87
2022/08/20 09:22:24;;;;;;;12.18;1.98;;;21.70;99.90;;;;;;6068707;23;20029;-86
2022/08/20 09:24:50;;;;;;;10.75;1.42;;;21.80;99.90;;;;;;6093110;23;20021;-87
2022/08/20 09:27:17;;;;;;;18.45;2.13;;;21.90;99.90;;;;;;6068382;23;20018;-87
2022/08/20 09:29:43;;;;;;;16.85;1.98;;;22.00;99.90;;;;;;6069851;23;20029;-85
2022/08/20 09:32:11;;;;;;;13.15;1.52;;;22.10;99.90;;;;;;6067529;23;20369;-87
2022/08/20 09:34:41;;;;;;;6.95;1.00;;;22.20;99.90;;;;;;6069244;23;20115;-86
2022/08/20 09:37:07;;;;;;;4.25;1.10;;;22.20;99.90;;;;;;6069122;23;20024;-86
2022/08/20 09:39:34;;;;;;;8.65;1.10;;;22.20;99.90;;;;;;6070452;23;20391;-87
2022/08/20 09:42:10;;;;;;;5.85;0.85;;;22.10;99.90;;;;;;6071414;23;20414;-87
2022/08/20 09:44:35;;;;;;;9.75;1.40;;;22.00;99.90;;;;;;6071138;23;20307;-87
2022/08/20 09:47:02;;;;;;;8.02;1.45;;;21.90;99.90;;;;;;6093680;23;20057;-88
2022/08/20 09:49:27;;;;;;;8.60;1.17;;;21.80;99.90;;;;;;6070854;23;20332;-87
2022/08/20 09:51:53;;;;;;;11.65;1.30;;;21.90;99.90;;;;;;6071286;23;20029;-87
2022/08/20 09:54:20;;;;;;;8.23;1.05;;;22.20;99.90;;;;;;6094622;23;20029;-87
2022/08/20 09:56:46;;;;;;;13.82;1.42;;;22.30;99.90;;;;;;6071535;23;20439;-86
2022/08/20 10:00:03;;;;;;;9.25;1.13;;;22.40;99.90;;;;;;6097060;23;20028;-90
2022/08/20 10:14:04;;;;;;;6.68;1.00;;;21.70;99.90;;;;;;5973363;23;20026;-89
2022/08/20 10:16:33;;;;;;;8.02;1.13;;;21.50;99.90;;;;;;6072922;23;20108;-88
2022/08/20 10:19:02;;;;;;;8.55;1.45;;;21.40;99.90;;;;;;6073832;23;20088;-89
2022/08/20 10:21:58;;;;;;;7.43;1.35;;;21.30;99.90;;;;;;6072396;23;20064;-90
2022/08/20 10:24:59;;;;;;;;;;;;;;;;;;;;;
2022/08/20 10:28:11;;;;;;;5.07;1.20;;;21.70;99.90;;;;;;6124189;23;20029;-90
2022/08/20 10:31:40;;;;;;;6.90;1.50;;;22.00;99.90;;;;;;6074013;23;20088;-90
2022/08/20 10:37:35;;;;;;;;;;;;;;;;;;;;;
2022/08/20 10:41:00;;;;;;;9.25;1.42;;;22.40;99.90;;;;;;6123889;23;20064;-92
2022/08/20 10:46:52;;;;;;;;;;;;;;;;;;;;;
2022/08/20 10:52:58;;;;;;;6.43;1.30;;;22.90;99.90;;;;;;6120821;23;20057;-89
2022/08/20 10:55:24;;;;;;;6.13;1.33;;;23.20;99.90;;;;;;6072325;23;20014;-88
2022/08/20 10:58:01;;;;;;;8.15;1.33;;;23.30;99.90;;;;;;6072156;23;20018;-89
2022/08/20 11:00:27;;;;;;;7.03;1.58;;;23.30;99.90;;;;;;6094838;23;20056;-88
2022/08/20 11:02:55;;;;;;;9.43;1.33;;;23.30;99.90;;;;;;6072732;23;20443;-90
2022/08/20 11:05:25;;;;;;;7.97;1.27;;;23.30;99.90;;;;;;6073184;23;20022;-89
2022/08/20 11:08:03;;;;;;;7.88;1.73;;;23.30;99.90;;;;;;6074160;23;20428;-89
2022/08/20 11:10:32;;;;;;;8.90;1.38;;;23.20;99.90;;;;;;6071319;23;20077;-89
2022/08/20 11:13:00;;;;;;;9.30;1.58;;;23.00;99.90;;;;;;6072962;23;20407;-88
2022/08/20 11:15:31;;;;;;;8.85;1.55;;;22.90;99.90;;;;;;6071551;23;20022;-89
2022/08/20 11:18:20;;;;;;;12.02;1.63;;;22.70;99.90;;;;;;6076035;23;20150;-87
2022/08/20 11:20:46;;;;;;;8.45;1.60;;;22.70;99.90;;;;;;6074258;23;20025;-89
2022/08/20 11:23:20;;;;;;;6.55;1.48;;;22.70;99.90;;;;;;6074191;23;20018;-90
2022/08/20 11:25:49;;;;;;;12.32;1.50;;;22.80;99.90;;;;;;6074289;23;20076;-89
2022/08/20 11:28:21;;;;;;;6.30;1.13;;;22.70;99.90;;;;;;6074158;23;20014;-91
2022/08/20 11:30:52;;;;;;;11.85;1.58;;;22.60;99.90;;;;;;6074200;23;20049;-91
2022/08/20 11:33:23;;;;;;;8.70;1.55;;;22.40;99.90;;;;;;6094614;23;20053;-90
2022/08/20 11:35:52;;;;;;;13.75;1.83;;;22.40;99.90;;;;;;6073710;23;20048;-89
2022/08/20 11:38:24;;;;;;;10.35;1.35;;;22.60;99.90;;;;;;6072041;23;20029;-91
2022/08/20 11:41:17;;;;;;;8.85;1.33;;;22.80;99.90;;;;;;6072805;23;20022;-91
2022/08/20 11:43:59;;;;;;;7.28;1.65;;;23.10;99.90;;;;;;6060462;23;20018;-91
2022/08/20 11:46:58;;;;;;;6.75;1.52;;;23.20;99.90;;;;;;6071747;23;20045;-91
2022/08/20 11:49:32;;;;;;;7.45;1.30;;;23.30;99.90;;;;;;6057774;23;20026;-91
2022/08/20 11:52:20;;;;;;;8.90;1.30;;;23.50;99.90;;;;;;6086987;23;20327;-91
2022/08/20 11:55:17;;;;;;;10.23;1.77;;;23.40;99.90;;;;;;6095700;23;20038;-91
2022/08/20 11:57:47;;;;;;;7.03;1.40;;;23.40;99.90;;;;;;6095696;23;20022;-91
2022/08/20 12:00:20;;;;;;;7.55;1.33;;;23.40;99.90;;;;;;6094465;23;20053;-91
2022/08/20 12:02:55;;;;;;;9.98;1.40;;;23.60;99.90;;;;;;6094371;23;20018;-91
2022/08/20 12:05:28;;;;;;;11.68;1.80;;;23.70;99.90;;;;;;6097068;23;20021;-90
2022/08/20 12:08:14;;;;;;;9.52;1.65;;;23.80;99.90;;;;;;6094638;23;20085;-91
2022/08/20 12:10:49;;;;;;;4.55;1.20;;;23.90;99.90;;;;;;6047027;23;20048;-91
2022/08/20 12:13:41;;;;;;;8.18;1.52;;;24.20;99.90;;;;;;6094522;23;20026;-91
2022/08/20 12:16:31;;;;;;;15.65;1.58;;;23.80;99.90;;;;;;6096307;23;20022;-91
2022/08/20 12:19:08;;;;;;;14.35;1.75;;;23.80;99.90;;;;;;6099199;23;20101;-91
2022/08/20 12:21:40;;;;;;;12.13;1.88;;;23.90;99.90;;;;;;6095195;23;20463;-91
2022/08/20 12:24:06;;;;;;;5.82;1.05;;;23.90;99.90;;;;;;6095188;23;20018;-92
2022/08/20 12:26:52;;;;;;;14.55;2.08;;;23.70;99.90;;;;;;6096684;23;20033;-91
2022/08/20 12:29:31;;;;;;;5.47;1.25;;;23.50;99.90;;;;;;6096421;23;20025;-91
2022/08/20 12:32:14;;;;;;;;;;;;;;;;;;;;;
2022/08/20 12:34:52;;;;;;;8.77;1.48;;;23.20;99.90;;;;;;6120490;23;19952;-91
2022/08/20 12:37:30;;;;;;;14.88;2.13;;;23.20;99.90;;;;;;6095421;23;20061;-91
2022/08/20 12:40:06;;;;;;;5.93;1.60;;;23.20;99.90;;;;;;6096171;23;20022;-90
2022/08/20 12:42:37;;;;;;;6.45;1.33;;;23.30;99.90;;;;;;6093827;23;20056;-91
2022/08/20 12:45:30;;;;;;;10.05;1.58;;;23.40;99.90;;;;;;6095828;23;20442;-91
2022/08/20 12:48:03;;;;;;;;;;;23.60;99.90;;;;;;6098132;23;20081;-89
2022/08/20 12:50:44;;;;;;;;;;;23.80;99.90;;;;;;6095448;23;19921;-91
2022/08/20 12:53:18;;;;;;;9.15;1.40;;;23.90;99.90;;;;;;6043372;23;19949;-94
2022/08/20 12:56:03;;;;;;;5.72;1.30;;;23.90;99.90;;;;;;6044946;23;20022;-93
2022/08/20 12:58:38;;;;;;;10.02;1.40;;;24.10;99.90;;;;;;6042180;23;20435;-93
2022/08/20 13:01:34;;;;;;;6.70;1.60;;;24.40;99.90;;;;;;6044441;23;20050;-91
2022/08/20 13:04:24;;;;;;;7.85;1.67;;;24.50;99.90;;;;;;6042641;23;20093;-92
2022/08/20 13:07:13;;;;;;;8.93;1.80;;;24.60;99.10;;;;;;6069681;23;20368;-91
2022/08/20 13:10:06;;;;;;;7.05;1.65;;;24.60;99.60;;;;;;6044598;23;20098;-94
2022/08/20 13:13:01;;;;;;;6.97;1.63;;;24.50;97.60;;;;;;6044215;23;20015;-93
2022/08/20 13:15:39;;;;;;;9.20;1.70;;;24.50;97.50;;;;;;6048923;23;20077;-93
2022/08/20 13:18:39;;;;;;;5.88;1.20;;;24.50;99.30;;;;;;6044418;23;20146;-91
2022/08/20 13:21:14;;;;;;;6.85;1.40;;;24.50;99.90;;;;;;6004004;23;20023;-91
2022/08/20 13:24:01;;;;;;;8.68;1.63;;;24.50;99.90;;;;;;6043373;23;20029;-91
2022/08/20 13:26:30;;;;;;;6.65;1.30;;;24.30;99.90;;;;;;6045481;23;20086;-94
2022/08/20 13:29:06;;;;;;;9.45;1.73;;;24.20;99.90;;;;;;6044928;23;20026;-91
2022/08/20 13:31:32;;;;;;;6.20;1.23;;;24.10;99.90;;;;;;6042908;23;20036;-90